sensor_id;sensor_type;location;lat;lon;timestamp;P1;durP1;ratioP1;P2;durP2;ratioP2
68310;SDS011;55157;51.036;17.058;2023-10-19T00:00:36;38.17;;;23.90;;
68310;SDS011;55157;51.036;17.058;2023-10-19T00:03:03;40.25;;;24.45;;
68310;SDS011;55157;51.036;17.058;2023-10-19T00:05:28;43.20;;;25.17;;
68310;SDS011;55157;51.036;17.058;2023-10-19T00:07:53;41.80;;;24.02;;
68310;SDS011;55157;51.036;17.058;2023-10-19T00:10:18;40.53;;;24.38;;
68310;SDS011;55157;51.036;17.058;2023-10-19T00:12:44;39.65;;;24.30;;
68310;SDS011;55157;51.036;17.058;2023-10-19T00:15:09;44.55;;;25.05;;
68310;SDS011;55157;51.036;17.058;2023-10-19T00:17:35;36.60;;;23.92;;
68310;SDS011;55157;51.036;17.058;2023-10-19T00:20:01;43.40;;;25.02;;
68310;SDS011;55157;51.036;17.058;2023-10-19T00:22:27;41.13;;;24.08;;
68310;SDS011;55157;51.036;17.058;2023-10-19T00:24:52;40.78;;;24.33;;
68310;SDS011;55157;51.036;17.058;2023-10-19T00:27:17;42.00;;;23.02;;
68310;SDS011;55157;51.036;17.058;2023-10-19T00:29:42;36.92;;;22.48;;
68310;SDS011;55157;51.036;17.058;2023-10-19T00:32:08;41.10;;;24.52;;
68310;SDS011;55157;51.036;17.058;2023-10-19T00:34:33;42.25;;;23.77;;
68310;SDS011;55157;51.036;17.058;2023-10-19T00:36:59;38.15;;;23.20;;
68310;SDS011;55157;51.036;17.058;2023-10-19T00:39:25;42.40;;;25.73;;
68310;SDS011;55157;51.036;17.058;2023-10-19T00:41:50;40.65;;;24.17;;
68310;SDS011;55157;51.036;17.058;2023-10-19T00:44:16;40.15;;;23.45;;
68310;SDS011;55157;51.036;17.058;2023-10-19T00:46:41;38.72;;;22.50;;
68310;SDS011;55157;51.036;17.058;2023-10-19T00:49:06;35.83;;;22.25;;
68310;SDS011;55157;51.036;17.058;2023-10-19T00:51:33;35.35;;;22.95;;
68310;SDS011;55157;51.036;17.058;2023-10-19T00:54:02;40.42;;;25.40;;
68310;SDS011;55157;51.036;17.058;2023-10-19T00:56:29;44.70;;;23.42;;
68310;SDS011;55157;51.036;17.058;2023-10-19T00:58:54;38.28;;;23.52;;
68310;SDS011;55157;51.036;17.058;2023-10-19T01:01:20;40.92;;;23.20;;
68310;SDS011;55157;51.036;17.058;2023-10-19T01:03:47;42.17;;;23.98;;
68310;SDS011;55157;51.036;17.058;2023-10-19T01:06:13;40.88;;;23.27;;
68310;SDS011;55157;51.036;17.058;2023-10-19T01:08:38;40.03;;;22.33;;
68310;SDS011;55157;51.036;17.058;2023-10-19T01:11:05;40.28;;;23.65;;
68310;SDS011;55157;51.036;17.058;2023-10-19T01:13:31;39.83;;;22.35;;
68310;SDS011;55157;51.036;17.058;2023-10-19T01:15:56;45.72;;;25.33;;
68310;SDS011;55157;51.036;17.058;2023-10-19T01:18:21;40.17;;;24.08;;
68310;SDS011;55157;51.036;17.058;2023-10-19T01:20:46;39.13;;;21.73;;
68310;SDS011;55157;51.036;17.058;2023-10-19T01:23:13;37.03;;;22.95;;
68310;SDS011;55157;51.036;17.058;2023-10-19T01:25:42;39.22;;;21.77;;
68310;SDS011;55157;51.036;17.058;2023-10-19T01:28:07;40.90;;;22.75;;
68310;SDS011;55157;51.036;17.058;2023-10-19T01:30:33;41.15;;;22.88;;
68310;SDS011;55157;51.036;17.058;2023-10-19T01:32:58;40.42;;;22.08;;
68310;SDS011;55157;51.036;17.058;2023-10-19T01:35:23;38.30;;;21.85;;
68310;SDS011;55157;51.036;17.058;2023-10-19T01:37:49;48.97;;;21.60;;
68310;SDS011;55157;51.036;17.058;2023-10-19T01:40:15;37.47;;;22.45;;
68310;SDS011;55157;51.036;17.058;2023-10-19T01:42:40;39.35;;;22.27;;
68310;SDS011;55157;51.036;17.058;2023-10-19T01:45:06;36.45;;;20.52;;
68310;SDS011;55157;51.036;17.058;2023-10-19T01:47:32;39.42;;;21.77;;
68310;SDS011;55157;51.036;17.058;2023-10-19T01:49:57;34.80;;;20.80;;
68310;SDS011;55157;51.036;17.058;2023-10-19T01:52:22;38.80;;;21.02;;
68310;SDS011;55157;51.036;17.058;2023-10-19T01:54:47;36.05;;;20.73;;
68310;SDS011;55157;51.036;17.058;2023-10-19T01:57:14;41.25;;;21.88;;
68310;SDS011;55157;51.036;17.058;2023-10-19T01:59:39;40.28;;;22.45;;
68310;SDS011;55157;51.036;17.058;2023-10-19T02:02:04;39.22;;;21.90;;
68310;SDS011;55157;51.036;17.058;2023-10-19T02:04:30;37.70;;;22.55;;
68310;SDS011;55157;51.036;17.058;2023-10-19T02:06:55;42.47;;;22.42;;
68310;SDS011;55157;51.036;17.058;2023-10-19T02:09:20;39.70;;;24.23;;
68310;SDS011;55157;51.036;17.058;2023-10-19T02:11:45;37.67;;;22.27;;
68310;SDS011;55157;51.036;17.058;2023-10-19T02:14:13;40.05;;;22.80;;
68310;SDS011;55157;51.036;17.058;2023-10-19T02:16:38;40.72;;;22.95;;
68310;SDS011;55157;51.036;17.058;2023-10-19T02:19:03;37.78;;;21.85;;
68310;SDS011;55157;51.036;17.058;2023-10-19T02:21:28;40.10;;;21.05;;
68310;SDS011;55157;51.036;17.058;2023-10-19T02:23:54;43.95;;;22.40;;
68310;SDS011;55157;51.036;17.058;2023-10-19T02:26:19;37.70;;;21.70;;
68310;SDS011;55157;51.036;17.058;2023-10-19T02:28:44;38.38;;;21.45;;
68310;SDS011;55157;51.036;17.058;2023-10-19T02:31:11;44.30;;;22.42;;
68310;SDS011;55157;51.036;17.058;2023-10-19T02:33:37;32.90;;;20.10;;
68310;SDS011;55157;51.036;17.058;2023-10-19T02:36:02;35.00;;;21.90;;
68310;SDS011;55157;51.036;17.058;2023-10-19T02:38:28;39.78;;;21.95;;
68310;SDS011;55157;51.036;17.058;2023-10-19T02:40:53;32.85;;;20.63;;
68310;SDS011;55157;51.036;17.058;2023-10-19T02:43:18;44.13;;;23.92;;
68310;SDS011;55157;51.036;17.058;2023-10-19T02:45:43;35.58;;;21.25;;
68310;SDS011;55157;51.036;17.058;2023-10-19T02:48:10;32.63;;;20.52;;
68310;SDS011;55157;51.036;17.058;2023-10-19T02:50:35;35.03;;;20.85;;
68310;SDS011;55157;51.036;17.058;2023-10-19T02:53:00;35.25;;;20.98;;
68310;SDS011;55157;51.036;17.058;2023-10-19T02:55:26;35.72;;;23.40;;
68310;SDS011;55157;51.036;17.058;2023-10-19T02:57:51;43.00;;;22.67;;
68310;SDS011;55157;51.036;17.058;2023-10-19T03:00:16;40.72;;;22.00;;
68310;SDS011;55157;51.036;17.058;2023-10-19T03:02:42;35.60;;;22.73;;
68310;SDS011;55157;51.036;17.058;2023-10-19T03:05:08;33.03;;;21.02;;
68310;SDS011;55157;51.036;17.058;2023-10-19T03:07:34;36.95;;;21.80;;
68310;SDS011;55157;51.036;17.058;2023-10-19T03:09:59;34.15;;;22.33;;
68310;SDS011;55157;51.036;17.058;2023-10-19T03:12:24;39.90;;;24.25;;
68310;SDS011;55157;51.036;17.058;2023-10-19T03:14:49;41.38;;;24.00;;
68310;SDS011;55157;51.036;17.058;2023-10-19T03:17:14;44.40;;;25.08;;
68310;SDS011;55157;51.036;17.058;2023-10-19T03:19:40;41.30;;;24.88;;
68310;SDS011;55157;51.036;17.058;2023-10-19T03:22:06;41.47;;;25.88;;
68310;SDS011;55157;51.036;17.058;2023-10-19T03:24:32;38.00;;;23.65;;
68310;SDS011;55157;51.036;17.058;2023-10-19T03:26:57;40.15;;;25.38;;
68310;SDS011;55157;51.036;17.058;2023-10-19T03:29:22;42.03;;;26.42;;
68310;SDS011;55157;51.036;17.058;2023-10-19T03:31:47;38.20;;;23.85;;
68310;SDS011;55157;51.036;17.058;2023-10-19T03:34:13;41.65;;;25.60;;
68310;SDS011;55157;51.036;17.058;2023-10-19T03:36:38;56.53;;;28.90;;
68310;SDS011;55157;51.036;17.058;2023-10-19T03:39:05;48.00;;;27.98;;
68310;SDS011;55157;51.036;17.058;2023-10-19T03:41:31;51.15;;;28.67;;
68310;SDS011;55157;51.036;17.058;2023-10-19T03:43:56;48.75;;;28.92;;
68310;SDS011;55157;51.036;17.058;2023-10-19T03:46:21;58.50;;;29.88;;
68310;SDS011;55157;51.036;17.058;2023-10-19T03:48:46;50.13;;;29.50;;
68310;SDS011;55157;51.036;17.058;2023-10-19T03:51:12;48.53;;;29.58;;
68310;SDS011;55157;51.036;17.058;2023-10-19T03:53:37;54.03;;;29.15;;
68310;SDS011;55157;51.036;17.058;2023-10-19T03:56:05;54.35;;;30.30;;
68310;SDS011;55157;51.036;17.058;2023-10-19T03:58:30;50.40;;;30.60;;
68310;SDS011;55157;51.036;17.058;2023-10-19T04:00:56;48.60;;;29.58;;
68310;SDS011;55157;51.036;17.058;2023-10-19T04:03:21;52.33;;;27.48;;
68310;SDS011;55157;51.036;17.058;2023-10-19T04:05:46;49.15;;;28.40;;
68310;SDS011;55157;51.036;17.058;2023-10-19T04:08:11;50.03;;;29.27;;
68310;SDS011;55157;51.036;17.058;2023-10-19T04:10:36;53.97;;;28.42;;
68310;SDS011;55157;51.036;17.058;2023-10-19T04:13:03;51.15;;;28.65;;
68310;SDS011;55157;51.036;17.058;2023-10-19T04:15:29;48.72;;;29.15;;
68310;SDS011;55157;51.036;17.058;2023-10-19T04:17:54;55.30;;;28.77;;
68310;SDS011;55157;51.036;17.058;2023-10-19T04:20:19;57.80;;;31.20;;
68310;SDS011;55157;51.036;17.058;2023-10-19T04:22:45;46.85;;;28.05;;
68310;SDS011;55157;51.036;17.058;2023-10-19T04:25:10;52.70;;;30.75;;
68310;SDS011;55157;51.036;17.058;2023-10-19T04:27:35;58.72;;;30.92;;
68310;SDS011;55157;51.036;17.058;2023-10-19T04:30:02;56.15;;;30.05;;
68310;SDS011;55157;51.036;17.058;2023-10-19T04:32:28;58.13;;;31.20;;
68310;SDS011;55157;51.036;17.058;2023-10-19T04:34:53;48.90;;;31.48;;
68310;SDS011;55157;51.036;17.058;2023-10-19T04:37:18;45.35;;;27.70;;
68310;SDS011;55157;51.036;17.058;2023-10-19T04:39:43;53.85;;;29.80;;
68310;SDS011;55157;51.036;17.058;2023-10-19T04:42:09;52.58;;;29.60;;
68310;SDS011;55157;51.036;17.058;2023-10-19T04:44:34;52.05;;;29.75;;
68310;SDS011;55157;51.036;17.058;2023-10-19T04:47:01;60.53;;;29.02;;
68310;SDS011;55157;51.036;17.058;2023-10-19T04:49:26;51.58;;;29.05;;
68310;SDS011;55157;51.036;17.058;2023-10-19T04:51:51;46.60;;;29.88;;
68310;SDS011;55157;51.036;17.058;2023-10-19T04:54:16;49.30;;;29.02;;
68310;SDS011;55157;51.036;17.058;2023-10-19T04:56:42;59.47;;;29.50;;
68310;SDS011;55157;51.036;17.058;2023-10-19T04:59:07;55.45;;;30.10;;
68310;SDS011;55157;51.036;17.058;2023-10-19T05:01:32;53.10;;;30.08;;
68310;SDS011;55157;51.036;17.058;2023-10-19T05:03:59;51.00;;;27.92;;
68310;SDS011;55157;51.036;17.058;2023-10-19T05:06:24;46.55;;;27.77;;
68310;SDS011;55157;51.036;17.058;2023-10-19T05:08:49;54.78;;;29.20;;
68310;SDS011;55157;51.036;17.058;2023-10-19T05:11:14;57.42;;;29.88;;
68310;SDS011;55157;51.036;17.058;2023-10-19T05:13:40;49.20;;;28.15;;
68310;SDS011;55157;51.036;17.058;2023-10-19T05:16:05;52.40;;;29.98;;
68310;SDS011;55157;51.036;17.058;2023-10-19T05:18:30;52.22;;;28.73;;
68310;SDS011;55157;51.036;17.058;2023-10-19T05:20:57;48.13;;;28.52;;
68310;SDS011;55157;51.036;17.058;2023-10-19T05:23:22;52.65;;;28.25;;
68310;SDS011;55157;51.036;17.058;2023-10-19T05:25:48;52.72;;;28.48;;
68310;SDS011;55157;51.036;17.058;2023-10-19T05:28:13;62.55;;;27.90;;
68310;SDS011;55157;51.036;17.058;2023-10-19T05:30:38;50.25;;;28.95;;
68310;SDS011;55157;51.036;17.058;2023-10-19T05:33:04;45.40;;;27.40;;
68310;SDS011;55157;51.036;17.058;2023-10-19T05:35:29;53.72;;;30.35;;
68310;SDS011;55157;51.036;17.058;2023-10-19T05:37:56;62.80;;;33.53;;
68310;SDS011;55157;51.036;17.058;2023-10-19T05:40:22;57.58;;;31.40;;
68310;SDS011;55157;51.036;17.058;2023-10-19T05:42:47;53.92;;;30.88;;
68310;SDS011;55157;51.036;17.058;2023-10-19T05:45:13;57.88;;;31.83;;
68310;SDS011;55157;51.036;17.058;2023-10-19T05:47:38;63.97;;;32.80;;
68310;SDS011;55157;51.036;17.058;2023-10-19T05:50:03;49.65;;;29.77;;
68310;SDS011;55157;51.036;17.058;2023-10-19T05:52:29;50.97;;;29.58;;
68310;SDS011;55157;51.036;17.058;2023-10-19T05:54:55;48.72;;;29.52;;
68310;SDS011;55157;51.036;17.058;2023-10-19T05:57:20;56.00;;;29.25;;
68310;SDS011;55157;51.036;17.058;2023-10-19T05:59:46;46.22;;;27.45;;
68310;SDS011;55157;51.036;17.058;2023-10-19T06:02:11;52.95;;;28.52;;
68310;SDS011;55157;51.036;17.058;2023-10-19T06:04:36;48.58;;;30.02;;
68310;SDS011;55157;51.036;17.058;2023-10-19T06:07:01;49.05;;;29.92;;
68310;SDS011;55157;51.036;17.058;2023-10-19T06:09:27;52.97;;;28.73;;
68310;SDS011;55157;51.036;17.058;2023-10-19T06:11:53;49.20;;;29.98;;
68310;SDS011;55157;51.036;17.058;2023-10-19T06:14:19;48.15;;;29.20;;
68310;SDS011;55157;51.036;17.058;2023-10-19T06:16:44;53.25;;;29.95;;
68310;SDS011;55157;51.036;17.058;2023-10-19T06:19:09;51.35;;;28.60;;
68310;SDS011;55157;51.036;17.058;2023-10-19T06:21:34;46.38;;;28.27;;
68310;SDS011;55157;51.036;17.058;2023-10-19T06:23:59;49.58;;;30.05;;
68310;SDS011;55157;51.036;17.058;2023-10-19T06:26:25;54.67;;;29.05;;
68310;SDS011;55157;51.036;17.058;2023-10-19T06:28:51;51.78;;;28.92;;
68310;SDS011;55157;51.036;17.058;2023-10-19T06:31:17;49.58;;;29.25;;
68310;SDS011;55157;51.036;17.058;2023-10-19T06:33:42;51.30;;;30.58;;
68310;SDS011;55157;51.036;17.058;2023-10-19T06:36:07;46.00;;;28.20;;
68310;SDS011;55157;51.036;17.058;2023-10-19T06:38:32;51.05;;;28.02;;
68310;SDS011;55157;51.036;17.058;2023-10-19T06:40:58;47.95;;;28.30;;
68310;SDS011;55157;51.036;17.058;2023-10-19T06:43:24;46.75;;;27.85;;
68310;SDS011;55157;51.036;17.058;2023-10-19T06:45:51;47.05;;;27.52;;
68310;SDS011;55157;51.036;17.058;2023-10-19T06:48:16;47.25;;;28.25;;
68310;SDS011;55157;51.036;17.058;2023-10-19T06:50:41;47.28;;;28.08;;
68310;SDS011;55157;51.036;17.058;2023-10-19T06:53:06;47.70;;;27.88;;
68310;SDS011;55157;51.036;17.058;2023-10-19T06:55:32;44.17;;;27.08;;
68310;SDS011;55157;51.036;17.058;2023-10-19T06:57:57;47.53;;;28.30;;
68310;SDS011;55157;51.036;17.058;2023-10-19T07:00:22;41.97;;;27.08;;
68310;SDS011;55157;51.036;17.058;2023-10-19T07:02:49;49.05;;;28.00;;
68310;SDS011;55157;51.036;17.058;2023-10-19T07:05:15;46.22;;;28.67;;
68310;SDS011;55157;51.036;17.058;2023-10-19T07:07:41;41.92;;;27.15;;
68310;SDS011;55157;51.036;17.058;2023-10-19T07:10:06;46.28;;;28.67;;
68310;SDS011;55157;51.036;17.058;2023-10-19T07:12:32;39.13;;;27.63;;
68310;SDS011;55157;51.036;17.058;2023-10-19T07:14:57;42.22;;;26.85;;
68310;SDS011;55157;51.036;17.058;2023-10-19T07:17:22;44.20;;;27.30;;
68310;SDS011;55157;51.036;17.058;2023-10-19T07:19:49;42.90;;;27.30;;
68310;SDS011;55157;51.036;17.058;2023-10-19T07:22:14;42.15;;;27.17;;
68310;SDS011;55157;51.036;17.058;2023-10-19T07:24:39;44.35;;;27.42;;
68310;SDS011;55157;51.036;17.058;2023-10-19T07:27:05;49.97;;;27.95;;
68310;SDS011;55157;51.036;17.058;2023-10-19T07:29:31;45.10;;;27.02;;
68310;SDS011;55157;51.036;17.058;2023-10-19T07:31:56;46.53;;;29.67;;
68310;SDS011;55157;51.036;17.058;2023-10-19T07:34:21;50.65;;;28.38;;
68310;SDS011;55157;51.036;17.058;2023-10-19T07:36:48;49.78;;;29.55;;
68310;SDS011;55157;51.036;17.058;2023-10-19T07:39:13;53.40;;;29.77;;
68310;SDS011;55157;51.036;17.058;2023-10-19T07:41:38;48.75;;;28.10;;
68310;SDS011;55157;51.036;17.058;2023-10-19T07:44:04;45.55;;;28.55;;
68310;SDS011;55157;51.036;17.058;2023-10-19T07:46:29;47.13;;;29.02;;
68310;SDS011;55157;51.036;17.058;2023-10-19T07:48:54;45.55;;;28.42;;
68310;SDS011;55157;51.036;17.058;2023-10-19T07:51:20;46.85;;;27.08;;
68310;SDS011;55157;51.036;17.058;2023-10-19T07:53:46;47.58;;;29.08;;
68310;SDS011;55157;51.036;17.058;2023-10-19T07:56:11;48.80;;;28.23;;
68310;SDS011;55157;51.036;17.058;2023-10-19T07:58:37;52.53;;;28.80;;
68310;SDS011;55157;51.036;17.058;2023-10-19T08:01:02;55.10;;;30.88;;
68310;SDS011;55157;51.036;17.058;2023-10-19T08:03:27;56.03;;;30.80;;
68310;SDS011;55157;51.036;17.058;2023-10-19T08:05:52;58.72;;;32.40;;
68310;SDS011;55157;51.036;17.058;2023-10-19T08:08:18;60.35;;;30.85;;
68310;SDS011;55157;51.036;17.058;2023-10-19T08:10:44;46.28;;;28.33;;
68310;SDS011;55157;51.036;17.058;2023-10-19T08:13:10;52.28;;;30.25;;
68310;SDS011;55157;51.036;17.058;2023-10-19T08:15:35;56.85;;;30.20;;
68310;SDS011;55157;51.036;17.058;2023-10-19T08:18:00;52.80;;;29.95;;
68310;SDS011;55157;51.036;17.058;2023-10-19T08:20:25;53.55;;;31.13;;
68310;SDS011;55157;51.036;17.058;2023-10-19T08:22:51;54.13;;;31.42;;
68310;SDS011;55157;51.036;17.058;2023-10-19T08:25:16;56.03;;;30.88;;
68310;SDS011;55157;51.036;17.058;2023-10-19T08:27:43;57.75;;;31.30;;
68310;SDS011;55157;51.036;17.058;2023-10-19T08:30:08;60.13;;;32.17;;
68310;SDS011;55157;51.036;17.058;2023-10-19T08:32:34;59.75;;;31.70;;
68310;SDS011;55157;51.036;17.058;2023-10-19T08:34:59;54.90;;;30.83;;
68310;SDS011;55157;51.036;17.058;2023-10-19T08:37:24;44.90;;;27.25;;
68310;SDS011;55157;51.036;17.058;2023-10-19T08:39:49;42.78;;;25.08;;
68310;SDS011;55157;51.036;17.058;2023-10-19T08:42:15;46.85;;;26.88;;
68310;SDS011;55157;51.036;17.058;2023-10-19T08:44:41;44.22;;;26.50;;
68310;SDS011;55157;51.036;17.058;2023-10-19T08:47:06;45.45;;;26.27;;
68310;SDS011;55157;51.036;17.058;2023-10-19T08:49:32;38.90;;;25.35;;
68310;SDS011;55157;51.036;17.058;2023-10-19T08:51:57;44.10;;;25.98;;
68310;SDS011;55157;51.036;17.058;2023-10-19T08:54:24;43.13;;;26.23;;
68310;SDS011;55157;51.036;17.058;2023-10-19T08:56:49;39.38;;;25.42;;
68310;SDS011;55157;51.036;17.058;2023-10-19T08:59:14;44.17;;;25.42;;
68310;SDS011;55157;51.036;17.058;2023-10-19T09:01:41;42.97;;;26.33;;
68310;SDS011;55157;51.036;17.058;2023-10-19T09:04:06;46.55;;;27.85;;
68310;SDS011;55157;51.036;17.058;2023-10-19T09:06:33;44.28;;;28.30;;
68310;SDS011;55157;51.036;17.058;2023-10-19T09:08:59;49.25;;;29.80;;
68310;SDS011;55157;51.036;17.058;2023-10-19T09:11:24;47.40;;;29.58;;
68310;SDS011;55157;51.036;17.058;2023-10-19T09:13:50;44.67;;;29.55;;
68310;SDS011;55157;51.036;17.058;2023-10-19T09:16:16;42.83;;;26.92;;
68310;SDS011;55157;51.036;17.058;2023-10-19T09:18:43;44.05;;;27.75;;
68310;SDS011;55157;51.036;17.058;2023-10-19T09:21:08;43.80;;;26.48;;
68310;SDS011;55157;51.036;17.058;2023-10-19T09:23:34;41.10;;;25.58;;
68310;SDS011;55157;51.036;17.058;2023-10-19T09:26:00;37.95;;;25.05;;
68310;SDS011;55157;51.036;17.058;2023-10-19T09:28:25;42.85;;;26.25;;
68310;SDS011;55157;51.036;17.058;2023-10-19T09:30:50;37.55;;;26.25;;
68310;SDS011;55157;51.036;17.058;2023-10-19T09:33:16;38.88;;;25.05;;
68310;SDS011;55157;51.036;17.058;2023-10-19T09:35:43;46.28;;;26.60;;
68310;SDS011;55157;51.036;17.058;2023-10-19T09:38:10;39.80;;;25.65;;
68310;SDS011;55157;51.036;17.058;2023-10-19T09:40:35;42.75;;;25.67;;
68310;SDS011;55157;51.036;17.058;2023-10-19T09:43:02;40.80;;;25.20;;
68310;SDS011;55157;51.036;17.058;2023-10-19T09:45:29;35.85;;;24.27;;
68310;SDS011;55157;51.036;17.058;2023-10-19T09:47:55;40.10;;;25.20;;
68310;SDS011;55157;51.036;17.058;2023-10-19T09:50:20;40.88;;;24.73;;
68310;SDS011;55157;51.036;17.058;2023-10-19T09:52:47;35.35;;;24.08;;
68310;SDS011;55157;51.036;17.058;2023-10-19T09:55:14;35.78;;;23.55;;
68310;SDS011;55157;51.036;17.058;2023-10-19T09:57:44;35.85;;;23.30;;
68310;SDS011;55157;51.036;17.058;2023-10-19T10:00:12;41.38;;;25.33;;
68310;SDS011;55157;51.036;17.058;2023-10-19T10:02:38;37.15;;;24.83;;
68310;SDS011;55157;51.036;17.058;2023-10-19T10:05:03;35.75;;;22.70;;
68310;SDS011;55157;51.036;17.058;2023-10-19T10:07:28;37.58;;;23.67;;
68310;SDS011;55157;51.036;17.058;2023-10-19T10:09:55;34.05;;;21.85;;
68310;SDS011;55157;51.036;17.058;2023-10-19T10:12:21;39.85;;;22.48;;
68310;SDS011;55157;51.036;17.058;2023-10-19T10:14:56;38.17;;;22.52;;
68310;SDS011;55157;51.036;17.058;2023-10-19T10:17:22;37.78;;;23.38;;
68310;SDS011;55157;51.036;17.058;2023-10-19T10:19:49;39.85;;;23.73;;
68310;SDS011;55157;51.036;17.058;2023-10-19T10:22:14;35.88;;;23.38;;
68310;SDS011;55157;51.036;17.058;2023-10-19T10:24:40;37.42;;;23.38;;
68310;SDS011;55157;51.036;17.058;2023-10-19T10:27:07;40.38;;;23.92;;
68310;SDS011;55157;51.036;17.058;2023-10-19T10:29:32;37.83;;;24.08;;
68310;SDS011;55157;51.036;17.058;2023-10-19T10:31:57;35.38;;;22.70;;
68310;SDS011;55157;51.036;17.058;2023-10-19T10:34:42;34.45;;;22.15;;
68310;SDS011;55157;51.036;17.058;2023-10-19T10:37:07;35.55;;;24.08;;
68310;SDS011;55157;51.036;17.058;2023-10-19T10:39:33;35.60;;;23.63;;
68310;SDS011;55157;51.036;17.058;2023-10-19T10:41:59;32.45;;;23.00;;
68310;SDS011;55157;51.036;17.058;2023-10-19T10:44:39;36.13;;;23.80;;
68310;SDS011;55157;51.036;17.058;2023-10-19T10:47:05;33.50;;;23.65;;
68310;SDS011;55157;51.036;17.058;2023-10-19T10:49:30;38.22;;;24.50;;
68310;SDS011;55157;51.036;17.058;2023-10-19T10:51:55;38.70;;;24.95;;
68310;SDS011;55157;51.036;17.058;2023-10-19T10:54:21;37.10;;;25.05;;
68310;SDS011;55157;51.036;17.058;2023-10-19T10:56:49;38.92;;;25.40;;
68310;SDS011;55157;51.036;17.058;2023-10-19T10:59:14;38.25;;;25.35;;
68310;SDS011;55157;51.036;17.058;2023-10-19T11:01:41;38.20;;;26.10;;
68310;SDS011;55157;51.036;17.058;2023-10-19T11:04:07;36.35;;;25.70;;
68310;SDS011;55157;51.036;17.058;2023-10-19T11:06:32;36.33;;;25.50;;
68310;SDS011;55157;51.036;17.058;2023-10-19T11:08:57;44.60;;;28.70;;
68310;SDS011;55157;51.036;17.058;2023-10-19T11:11:23;38.13;;;26.83;;
68310;SDS011;55157;51.036;17.058;2023-10-19T11:13:48;32.65;;;24.17;;
68310;SDS011;55157;51.036;17.058;2023-10-19T11:16:21;40.00;;;25.83;;
68310;SDS011;55157;51.036;17.058;2023-10-19T11:18:48;42.45;;;26.70;;
68310;SDS011;55157;51.036;17.058;2023-10-19T11:21:13;42.95;;;28.10;;
68310;SDS011;55157;51.036;17.058;2023-10-19T11:23:39;37.60;;;26.20;;
68310;SDS011;55157;51.036;17.058;2023-10-19T11:26:05;38.50;;;26.65;;
68310;SDS011;55157;51.036;17.058;2023-10-19T11:28:30;40.92;;;28.80;;
68310;SDS011;55157;51.036;17.058;2023-10-19T11:31:00;37.92;;;27.75;;
68310;SDS011;55157;51.036;17.058;2023-10-19T11:33:35;43.25;;;29.92;;
68310;SDS011;55157;51.036;17.058;2023-10-19T11:36:01;47.40;;;32.72;;
68310;SDS011;55157;51.036;17.058;2023-10-19T11:38:27;40.10;;;29.98;;
68310;SDS011;55157;51.036;17.058;2023-10-19T11:40:52;40.33;;;28.38;;
68310;SDS011;55157;51.036;17.058;2023-10-19T11:43:18;43.10;;;30.38;;
68310;SDS011;55157;51.036;17.058;2023-10-19T11:45:43;40.40;;;29.77;;
68310;SDS011;55157;51.036;17.058;2023-10-19T11:48:08;43.08;;;30.25;;
68310;SDS011;55157;51.036;17.058;2023-10-19T11:50:33;44.53;;;29.23;;
68310;SDS011;55157;51.036;17.058;2023-10-19T11:53:00;40.58;;;28.75;;
68310;SDS011;55157;51.036;17.058;2023-10-19T11:55:25;40.17;;;30.23;;
68310;SDS011;55157;51.036;17.058;2023-10-19T11:57:50;40.80;;;30.02;;
68310;SDS011;55157;51.036;17.058;2023-10-19T12:00:16;41.75;;;28.75;;
68310;SDS011;55157;51.036;17.058;2023-10-19T12:02:41;42.58;;;30.00;;
68310;SDS011;55157;51.036;17.058;2023-10-19T12:05:07;40.03;;;28.63;;
68310;SDS011;55157;51.036;17.058;2023-10-19T12:07:32;38.80;;;27.92;;
68310;SDS011;55157;51.036;17.058;2023-10-19T12:09:59;43.42;;;30.23;;
68310;SDS011;55157;51.036;17.058;2023-10-19T12:12:24;41.97;;;29.13;;
68310;SDS011;55157;51.036;17.058;2023-10-19T12:14:49;41.83;;;30.48;;
68310;SDS011;55157;51.036;17.058;2023-10-19T12:17:14;41.33;;;30.35;;
68310;SDS011;55157;51.036;17.058;2023-10-19T12:19:39;41.60;;;30.90;;
68310;SDS011;55157;51.036;17.058;2023-10-19T12:22:05;40.95;;;30.15;;
68310;SDS011;55157;51.036;17.058;2023-10-19T12:24:30;40.97;;;29.65;;
68310;SDS011;55157;51.036;17.058;2023-10-19T12:26:57;43.47;;;31.05;;
68310;SDS011;55157;51.036;17.058;2023-10-19T12:29:22;44.80;;;31.85;;
68310;SDS011;55157;51.036;17.058;2023-10-19T12:31:47;41.75;;;30.88;;
68310;SDS011;55157;51.036;17.058;2023-10-19T12:34:12;48.53;;;31.90;;
68310;SDS011;55157;51.036;17.058;2023-10-19T12:36:38;46.55;;;31.25;;
68310;SDS011;55157;51.036;17.058;2023-10-19T12:39:03;45.80;;;31.60;;
68310;SDS011;55157;51.036;17.058;2023-10-19T12:41:29;43.15;;;30.83;;
68310;SDS011;55157;51.036;17.058;2023-10-19T12:43:55;42.63;;;30.95;;
68310;SDS011;55157;51.036;17.058;2023-10-19T12:46:21;42.08;;;31.23;;
68310;SDS011;55157;51.036;17.058;2023-10-19T12:48:46;48.08;;;33.63;;
68310;SDS011;55157;51.036;17.058;2023-10-19T12:51:11;42.88;;;32.25;;
68310;SDS011;55157;51.036;17.058;2023-10-19T12:53:36;42.92;;;32.47;;
68310;SDS011;55157;51.036;17.058;2023-10-19T12:56:02;50.10;;;34.72;;
68310;SDS011;55157;51.036;17.058;2023-10-19T12:58:28;44.38;;;33.33;;
68310;SDS011;55157;51.036;17.058;2023-10-19T13:00:54;46.58;;;33.67;;
68310;SDS011;55157;51.036;17.058;2023-10-19T13:03:20;44.47;;;32.92;;
68310;SDS011;55157;51.036;17.058;2023-10-19T13:05:45;50.80;;;33.80;;
68310;SDS011;55157;51.036;17.058;2023-10-19T13:08:10;47.42;;;32.80;;
68310;SDS011;55157;51.036;17.058;2023-10-19T13:10:36;43.30;;;32.95;;
68310;SDS011;55157;51.036;17.058;2023-10-19T13:13:01;46.15;;;32.33;;
68310;SDS011;55157;51.036;17.058;2023-10-19T13:15:27;45.65;;;31.63;;
68310;SDS011;55157;51.036;17.058;2023-10-19T13:17:53;43.20;;;31.55;;
68310;SDS011;55157;51.036;17.058;2023-10-19T13:20:18;49.08;;;34.25;;
68310;SDS011;55157;51.036;17.058;2023-10-19T13:22:44;43.65;;;32.97;;
68310;SDS011;55157;51.036;17.058;2023-10-19T13:25:09;46.80;;;34.67;;
68310;SDS011;55157;51.036;17.058;2023-10-19T13:27:34;47.28;;;34.67;;
68310;SDS011;55157;51.036;17.058;2023-10-19T13:29:59;43.63;;;32.83;;
68310;SDS011;55157;51.036;17.058;2023-10-19T13:32:28;43.67;;;32.50;;
68310;SDS011;55157;51.036;17.058;2023-10-19T13:34:54;43.05;;;32.03;;
68310;SDS011;55157;51.036;17.058;2023-10-19T13:37:19;43.95;;;32.45;;
68310;SDS011;55157;51.036;17.058;2023-10-19T13:39:45;48.92;;;34.45;;
68310;SDS011;55157;51.036;17.058;2023-10-19T13:42:10;42.75;;;32.83;;
68310;SDS011;55157;51.036;17.058;2023-10-19T13:44:35;44.95;;;32.40;;
68310;SDS011;55157;51.036;17.058;2023-10-19T13:47:00;39.28;;;31.20;;
68310;SDS011;55157;51.036;17.058;2023-10-19T13:49:26;43.90;;;32.95;;
68310;SDS011;55157;51.036;17.058;2023-10-19T13:51:52;40.05;;;32.78;;
68310;SDS011;55157;51.036;17.058;2023-10-19T13:54:17;40.50;;;32.95;;
68310;SDS011;55157;51.036;17.058;2023-10-19T13:56:43;48.08;;;33.67;;
68310;SDS011;55157;51.036;17.058;2023-10-19T13:59:08;43.90;;;32.58;;